sensor_id;sensor_type;location;lat;lon;timestamp;temperature;humidity
37052;DHT22;22964;52.272;13.356;2023-03-26T00:01:31;12.40;70.00
37052;DHT22;22964;52.272;13.356;2023-03-26T00:04:01;12.40;69.90
37052;DHT22;22964;52.272;13.356;2023-03-26T00:06:30;12.40;70.00
37052;DHT22;22964;52.272;13.356;2023-03-26T00:08:59;12.40;70.30
37052;DHT22;22964;52.272;13.356;2023-03-26T00:11:27;12.40;70.20
37052;DHT22;22964;52.272;13.356;2023-03-26T00:13:53;12.40;70.00
37052;DHT22;22964;52.272;13.356;2023-03-26T00:16:22;12.30;70.00
37052;DHT22;22964;52.272;13.356;2023-03-26T00:18:48;12.40;70.00
37052;DHT22;22964;52.272;13.356;2023-03-26T00:21:18;12.30;70.00
37052;DHT22;22964;52.272;13.356;2023-03-26T00:23:45;12.30;69.80
37052;DHT22;22964;52.272;13.356;2023-03-26T00:26:12;12.30;70.00
37052;DHT22;22964;52.272;13.356;2023-03-26T00:28:39;12.30;69.90
37052;DHT22;22964;52.272;13.356;2023-03-26T00:31:11;12.20;69.70
37052;DHT22;22964;52.272;13.356;2023-03-26T00:33:38;12.30;69.90
37052;DHT22;22964;52.272;13.356;2023-03-26T00:36:15;12.20;69.60
37052;DHT22;22964;52.272;13.356;2023-03-26T00:38:43;12.20;69.80
37052;DHT22;22964;52.272;13.356;2023-03-26T00:41:15;12.20;69.70
37052;DHT22;22964;52.272;13.356;2023-03-26T00:43:56;12.20;69.70
37052;DHT22;22964;52.272;13.356;2023-03-26T00:46:23;12.20;69.60
37052;DHT22;22964;52.272;13.356;2023-03-26T00:48:49;12.20;69.50
37052;DHT22;22964;52.272;13.356;2023-03-26T00:51:17;12.20;70.20
37052;DHT22;22964;52.272;13.356;2023-03-26T00:53:44;12.20;69.20
37052;DHT22;22964;52.272;13.356;2023-03-26T00:56:11;12.20;69.40
37052;DHT22;22964;52.272;13.356;2023-03-26T00:58:37;12.30;69.50
37052;DHT22;22964;52.272;13.356;2023-03-26T01:01:06;12.20;69.40
37052;DHT22;22964;52.272;13.356;2023-03-26T01:03:34;12.30;69.50
37052;DHT22;22964;52.272;13.356;2023-03-26T01:06:10;12.20;69.50
37052;DHT22;22964;52.272;13.356;2023-03-26T01:08:43;12.20;69.70
37052;DHT22;22964;52.272;13.356;2023-03-26T01:11:11;12.20;69.40
37052;DHT22;22964;52.272;13.356;2023-03-26T01:13:47;12.20;69.80
37052;DHT22;22964;52.272;13.356;2023-03-26T01:16:30;12.30;69.40
37052;DHT22;22964;52.272;13.356;2023-03-26T01:18:57;12.20;69.70
37052;DHT22;22964;52.272;13.356;2023-03-26T01:21:26;12.20;69.30
37052;DHT22;22964;52.272;13.356;2023-03-26T01:24:02;12.20;69.70
37052;DHT22;22964;52.272;13.356;2023-03-26T01:26:51;12.20;70.10
37052;DHT22;22964;52.272;13.356;2023-03-26T01:34:50;12.10;70.80
37052;DHT22;22964;52.272;13.356;2023-03-26T01:40:08;12.10;70.70
37052;DHT22;22964;52.272;13.356;2023-03-26T01:42:44;12.10;70.80
37052;DHT22;22964;52.272;13.356;2023-03-26T01:45:17;12.00;70.80
37052;DHT22;22964;52.272;13.356;2023-03-26T01:47:44;12.00;70.80
37052;DHT22;22964;52.272;13.356;2023-03-26T01:50:11;12.10;70.70
37052;DHT22;22964;52.272;13.356;2023-03-26T01:52:37;12.00;70.70
37052;DHT22;22964;52.272;13.356;2023-03-26T01:55:03;12.00;71.10
37052;DHT22;22964;52.272;13.356;2023-03-26T02:00:18;12.00;71.00
37052;DHT22;22964;52.272;13.356;2023-03-26T02:02:49;12.00;70.50
37052;DHT22;22964;52.272;13.356;2023-03-26T02:10:46;12.00;70.50
37052;DHT22;22964;52.272;13.356;2023-03-26T02:13:12;12.00;70.40
37052;DHT22;22964;52.272;13.356;2023-03-26T02:15:39;12.00;70.30
37052;DHT22;22964;52.272;13.356;2023-03-26T02:18:06;12.00;70.40
37052;DHT22;22964;52.272;13.356;2023-03-26T02:20:36;12.00;70.30
37052;DHT22;22964;52.272;13.356;2023-03-26T02:23:02;12.10;70.10
37052;DHT22;22964;52.272;13.356;2023-03-26T02:25:29;12.00;70.20
37052;DHT22;22964;52.272;13.356;2023-03-26T02:27:56;12.00;69.90
37052;DHT22;22964;52.272;13.356;2023-03-26T02:30:23;12.00;70.00
37052;DHT22;22964;52.272;13.356;2023-03-26T02:32:52;12.10;70.10
37052;DHT22;22964;52.272;13.356;2023-03-26T02:35:21;12.10;70.10
37052;DHT22;22964;52.272;13.356;2023-03-26T02:37:49;12.10;70.00
37052;DHT22;22964;52.272;13.356;2023-03-26T02:40:18;12.10;70.20
37052;DHT22;22964;52.272;13.356;2023-03-26T02:42:46;12.00;70.10
37052;DHT22;22964;52.272;13.356;2023-03-26T02:45:13;12.10;71.00
37052;DHT22;22964;52.272;13.356;2023-03-26T02:47:47;12.10;70.40
37052;DHT22;22964;52.272;13.356;2023-03-26T02:50:33;12.10;70.20
37052;DHT22;22964;52.272;13.356;2023-03-26T02:53:36;12.10;70.30
37052;DHT22;22964;52.272;13.356;2023-03-26T02:56:36;12.10;70.40
37052;DHT22;22964;52.272;13.356;2023-03-26T02:59:15;12.10;70.50
37052;DHT22;22964;52.272;13.356;2023-03-26T03:01:44;12.10;70.70
37052;DHT22;22964;52.272;13.356;2023-03-26T03:04:12;12.10;70.80
37052;DHT22;22964;52.272;13.356;2023-03-26T03:06:39;12.10;71.10
37052;DHT22;22964;52.272;13.356;2023-03-26T03:09:08;12.10;71.00
37052;DHT22;22964;52.272;13.356;2023-03-26T03:11:34;12.10;71.20
37052;DHT22;22964;52.272;13.356;2023-03-26T03:14:00;12.10;71.00
37052;DHT22;22964;52.272;13.356;2023-03-26T03:16:28;12.10;71.30
37052;DHT22;22964;52.272;13.356;2023-03-26T03:18:57;12.20;71.20
37052;DHT22;22964;52.272;13.356;2023-03-26T03:21:27;12.20;71.20
37052;DHT22;22964;52.272;13.356;2023-03-26T03:23:54;12.20;71.30
37052;DHT22;22964;52.272;13.356;2023-03-26T03:26:22;12.10;71.10
37052;DHT22;22964;52.272;13.356;2023-03-26T03:28:55;12.20;71.50
37052;DHT22;22964;52.272;13.356;2023-03-26T03:31:23;12.10;71.50
37052;DHT22;22964;52.272;13.356;2023-03-26T03:33:50;12.10;71.70
37052;DHT22;22964;52.272;13.356;2023-03-26T03:36:20;12.10;71.80
37052;DHT22;22964;52.272;13.356;2023-03-26T03:39:06;12.10;71.80
37052;DHT22;22964;52.272;13.356;2023-03-26T03:41:33;12.00;71.60
37052;DHT22;22964;52.272;13.356;2023-03-26T03:44:02;12.00;71.50
37052;DHT22;22964;52.272;13.356;2023-03-26T03:46:30;12.00;71.50
37052;DHT22;22964;52.272;13.356;2023-03-26T03:48:56;12.00;71.70
37052;DHT22;22964;52.272;13.356;2023-03-26T03:51:32;11.90;71.60
37052;DHT22;22964;52.272;13.356;2023-03-26T03:54:00;11.90;71.60
37052;DHT22;22964;52.272;13.356;2023-03-26T03:56:52;11.90;71.70
37052;DHT22;22964;52.272;13.356;2023-03-26T03:59:39;11.90;71.80
37052;DHT22;22964;52.272;13.356;2023-03-26T04:02:07;11.90;72.00
37052;DHT22;22964;52.272;13.356;2023-03-26T04:04:56;11.90;71.80
37052;DHT22;22964;52.272;13.356;2023-03-26T04:07:27;11.80;71.70
37052;DHT22;22964;52.272;13.356;2023-03-26T04:10:07;11.80;71.90
37052;DHT22;22964;52.272;13.356;2023-03-26T04:12:53;11.80;71.80
37052;DHT22;22964;52.272;13.356;2023-03-26T04:15:32;11.80;71.60
37052;DHT22;22964;52.272;13.356;2023-03-26T04:18:00;11.80;71.70
37052;DHT22;22964;52.272;13.356;2023-03-26T04:20:26;11.80;71.80
37052;DHT22;22964;52.272;13.356;2023-03-26T04:22:52;11.80;71.90
37052;DHT22;22964;52.272;13.356;2023-03-26T04:25:20;11.70;71.90
37052;DHT22;22964;52.272;13.356;2023-03-26T04:27:49;11.70;72.00
37052;DHT22;22964;52.272;13.356;2023-03-26T04:30:35;11.70;72.00
37052;DHT22;22964;52.272;13.356;2023-03-26T04:33:23;11.70;71.90
37052;DHT22;22964;52.272;13.356;2023-03-26T04:35:50;11.70;72.00
37052;DHT22;22964;52.272;13.356;2023-03-26T04:38:17;11.70;72.10
37052;DHT22;22964;52.272;13.356;2023-03-26T04:40:46;11.70;73.00
37052;DHT22;22964;52.272;13.356;2023-03-26T04:43:15;11.70;72.10
37052;DHT22;22964;52.272;13.356;2023-03-26T04:45:51;11.70;72.20
37052;DHT22;22964;52.272;13.356;2023-03-26T04:48:19;11.70;72.40
37052;DHT22;22964;52.272;13.356;2023-03-26T04:50:47;11.70;72.30
37052;DHT22;22964;52.272;13.356;2023-03-26T04:53:17;11.70;72.40
37052;DHT22;22964;52.272;13.356;2023-03-26T04:59:19;11.70;72.60
37052;DHT22;22964;52.272;13.356;2023-03-26T05:01:54;11.80;72.40
37052;DHT22;22964;52.272;13.356;2023-03-26T05:04:23;11.70;72.30
37052;DHT22;22964;52.272;13.356;2023-03-26T05:06:51;11.80;72.30
37052;DHT22;22964;52.272;13.356;2023-03-26T05:09:25;11.80;72.40
37052;DHT22;22964;52.272;13.356;2023-03-26T05:12:14;11.80;72.30
37052;DHT22;22964;52.272;13.356;2023-03-26T05:14:55;11.80;72.30
37052;DHT22;22964;52.272;13.356;2023-03-26T05:17:47;11.80;72.40
37052;DHT22;22964;52.272;13.356;2023-03-26T05:20:26;11.80;72.20
37052;DHT22;22964;52.272;13.356;2023-03-26T05:22:52;11.80;72.30
37052;DHT22;22964;52.272;13.356;2023-03-26T05:25:29;11.80;72.50
37052;DHT22;22964;52.272;13.356;2023-03-26T05:27:56;11.80;72.30
37052;DHT22;22964;52.272;13.356;2023-03-26T05:30:26;11.90;72.40
37052;DHT22;22964;52.272;13.356;2023-03-26T05:32:57;11.90;72.30
37052;DHT22;22964;52.272;13.356;2023-03-26T05:35:28;11.90;72.30
37052;DHT22;22964;52.272;13.356;2023-03-26T05:37:55;11.90;72.50
37052;DHT22;22964;52.272;13.356;2023-03-26T05:40:23;11.90;72.40
37052;DHT22;22964;52.272;13.356;2023-03-26T05:42:53;11.90;72.40
37052;DHT22;22964;52.272;13.356;2023-03-26T05:45:42;11.90;72.50
37052;DHT22;22964;52.272;13.356;2023-03-26T05:48:24;11.90;72.50
37052;DHT22;22964;52.272;13.356;2023-03-26T05:50:52;11.90;72.50
37052;DHT22;22964;52.272;13.356;2023-03-26T05:53:19;12.00;72.70
37052;DHT22;22964;52.272;13.356;2023-03-26T05:56:04;12.00;72.70
37052;DHT22;22964;52.272;13.356;2023-03-26T05:58:48;12.00;72.70
37052;DHT22;22964;52.272;13.356;2023-03-26T06:01:21;12.00;72.70
37052;DHT22;22964;52.272;13.356;2023-03-26T06:04:16;12.00;72.70
37052;DHT22;22964;52.272;13.356;2023-03-26T06:06:53;12.00;72.70
37052;DHT22;22964;52.272;13.356;2023-03-26T06:09:19;12.00;72.70
37052;DHT22;22964;52.272;13.356;2023-03-26T06:11:45;12.00;72.80
37052;DHT22;22964;52.272;13.356;2023-03-26T06:14:10;12.10;72.80
37052;DHT22;22964;52.272;13.356;2023-03-26T06:16:41;12.10;72.90
37052;DHT22;22964;52.272;13.356;2023-03-26T06:19:19;12.10;73.10
37052;DHT22;22964;52.272;13.356;2023-03-26T06:21:57;12.00;73.00
37052;DHT22;22964;52.272;13.356;2023-03-26T06:24:46;12.10;73.00
37052;DHT22;22964;52.272;13.356;2023-03-26T06:27:38;12.10;73.10
37052;DHT22;22964;52.272;13.356;2023-03-26T06:30:35;12.10;72.80
37052;DHT22;22964;52.272;13.356;2023-03-26T06:33:17;12.10;72.70
37052;DHT22;22964;52.272;13.356;2023-03-26T06:35:47;12.20;72.60
37052;DHT22;22964;52.272;13.356;2023-03-26T06:38:15;12.20;72.60
37052;DHT22;22964;52.272;13.356;2023-03-26T06:40:41;12.20;72.80
37052;DHT22;22964;52.272;13.356;2023-03-26T06:43:20;12.20;72.90
37052;DHT22;22964;52.272;13.356;2023-03-26T06:46:00;12.20;73.00
37052;DHT22;22964;52.272;13.356;2023-03-26T06:48:38;12.30;73.20
37052;DHT22;22964;52.272;13.356;2023-03-26T06:51:20;12.30;73.20
37052;DHT22;22964;52.272;13.356;2023-03-26T06:54:11;12.30;72.90
37052;DHT22;22964;52.272;13.356;2023-03-26T06:56:57;12.40;72.40
37052;DHT22;22964;52.272;13.356;2023-03-26T06:59:44;12.40;72.10
37052;DHT22;22964;52.272;13.356;2023-03-26T07:02:36;12.40;72.00
37052;DHT22;22964;52.272;13.356;2023-03-26T07:05:20;12.40;71.80
37052;DHT22;22964;52.272;13.356;2023-03-26T07:08:04;12.40;71.50
37052;DHT22;22964;52.272;13.356;2023-03-26T07:10:49;12.40;71.40
37052;DHT22;22964;52.272;13.356;2023-03-26T07:13:33;12.40;71.50
37052;DHT22;22964;52.272;13.356;2023-03-26T07:16:17;12.40;71.50
37052;DHT22;22964;52.272;13.356;2023-03-26T07:19:01;12.30;71.60
37052;DHT22;22964;52.272;13.356;2023-03-26T07:21:33;12.30;71.70
37052;DHT22;22964;52.272;13.356;2023-03-26T07:24:00;12.40;72.00
37052;DHT22;22964;52.272;13.356;2023-03-26T07:27:09;12.30;72.10
37052;DHT22;22964;52.272;13.356;2023-03-26T07:35:49;12.20;72.90
37052;DHT22;22964;52.272;13.356;2023-03-26T07:44:32;12.30;72.50
37052;DHT22;22964;52.272;13.356;2023-03-26T07:47:28;12.30;72.80
37052;DHT22;22964;52.272;13.356;2023-03-26T07:50:24;12.30;72.80
37052;DHT22;22964;52.272;13.356;2023-03-26T07:53:13;12.40;72.90
37052;DHT22;22964;52.272;13.356;2023-03-26T08:01:37;12.50;72.80
37052;DHT22;22964;52.272;13.356;2023-03-26T08:07:20;12.60;72.10
37052;DHT22;22964;52.272;13.356;2023-03-26T08:10:30;12.70;72.00
37052;DHT22;22964;52.272;13.356;2023-03-26T08:13:19;12.80;71.80
37052;DHT22;22964;52.272;13.356;2023-03-26T08:21:11;12.90;70.60
37052;DHT22;22964;52.272;13.356;2023-03-26T08:26:46;13.00;70.30
37052;DHT22;22964;52.272;13.356;2023-03-26T08:29:28;13.00;69.70
37052;DHT22;22964;52.272;13.356;2023-03-26T08:31:59;13.10;69.60
37052;DHT22;22964;52.272;13.356;2023-03-26T08:34:26;13.10;69.40
37052;DHT22;22964;52.272;13.356;2023-03-26T08:36:51;13.10;69.40
37052;DHT22;22964;52.272;13.356;2023-03-26T08:39:18;13.10;69.10
37052;DHT22;22964;52.272;13.356;2023-03-26T08:41:58;13.10;69.00
37052;DHT22;22964;52.272;13.356;2023-03-26T08:49:45;13.20;68.50
37052;DHT22;22964;52.272;13.356;2023-03-26T09:03:26;13.40;67.00
37052;DHT22;22964;52.272;13.356;2023-03-26T09:06:24;13.40;66.70
37052;DHT22;22964;52.272;13.356;2023-03-26T09:26:47;13.70;67.00
37052;DHT22;22964;52.272;13.356;2023-03-26T09:38:32;14.00;64.90
37052;DHT22;22964;52.272;13.356;2023-03-26T09:47:03;14.10;63.50
37052;DHT22;22964;52.272;13.356;2023-03-26T09:52:32;14.20;63.50
37052;DHT22;22964;52.272;13.356;2023-03-26T09:57:57;14.40;62.30
37052;DHT22;22964;52.272;13.356;2023-03-26T10:10:55;14.40;61.40
37052;DHT22;22964;52.272;13.356;2023-03-26T10:16:34;14.40;61.80
37052;DHT22;22964;52.272;13.356;2023-03-26T10:27:38;14.40;61.00
37052;DHT22;22964;52.272;13.356;2023-03-26T10:33:12;14.50;61.70
37052;DHT22;22964;52.272;13.356;2023-03-26T10:36:07;14.40;60.50
37052;DHT22;22964;52.272;13.356;2023-03-26T10:41:53;14.40;60.10
37052;DHT22;22964;52.272;13.356;2023-03-26T10:44:38;14.40;60.80
37052;DHT22;22964;52.272;13.356;2023-03-26T10:53:12;14.50;61.20
37052;DHT22;22964;52.272;13.356;2023-03-26T10:55:43;14.60;61.70
37052;DHT22;22964;52.272;13.356;2023-03-26T10:58:24;14.60;61.30
37052;DHT22;22964;52.272;13.356;2023-03-26T11:11:49;14.90;59.50
37052;DHT22;22964;52.272;13.356;2023-03-26T11:14:24;15.00;60.50
37052;DHT22;22964;52.272;13.356;2023-03-26T11:17:10;15.00;61.50
37052;DHT22;22964;52.272;13.356;2023-03-26T11:19:51;15.10;60.70
37052;DHT22;22964;52.272;13.356;2023-03-26T11:33:31;15.80;58.80
37052;DHT22;22964;52.272;13.356;2023-03-26T11:36:04;15.90;58.70
37052;DHT22;22964;52.272;13.356;2023-03-26T11:38:46;16.00;58.10
37052;DHT22;22964;52.272;13.356;2023-03-26T11:41:23;16.00;57.80
37052;DHT22;22964;52.272;13.356;2023-03-26T11:44:22;16.00;58.00
37052;DHT22;22964;52.272;13.356;2023-03-26T11:46:51;16.10;58.20
37052;DHT22;22964;52.272;13.356;2023-03-26T11:49:24;16.10;57.00
37052;DHT22;22964;52.272;13.356;2023-03-26T11:51:51;16.10;57.10
37052;DHT22;22964;52.272;13.356;2023-03-26T11:54:16;16.10;56.90
37052;DHT22;22964;52.272;13.356;2023-03-26T11:56:54;16.10;57.30
37052;DHT22;22964;52.272;13.356;2023-03-26T11:59:31;16.00;56.60
37052;DHT22;22964;52.272;13.356;2023-03-26T12:04:39;16.10;57.10
37052;DHT22;22964;52.272;13.356;2023-03-26T12:07:22;16.20;57.60
37052;DHT22;22964;52.272;13.356;2023-03-26T12:10:05;16.30;57.10
37052;DHT22;22964;52.272;13.356;2023-03-26T12:12:45;16.40;57.50
37052;DHT22;22964;52.272;13.356;2023-03-26T12:15:14;16.60;57.50
37052;DHT22;22964;52.272;13.356;2023-03-26T12:17:41;16.70;57.70
37052;DHT22;22964;52.272;13.356;2023-03-26T12:22:53;16.90;56.10
37052;DHT22;22964;52.272;13.356;2023-03-26T12:25:28;17.10;56.90
37052;DHT22;22964;52.272;13.356;2023-03-26T12:28:03;17.20;56.30
37052;DHT22;22964;52.272;13.356;2023-03-26T12:30:30;17.40;56.30
37052;DHT22;22964;52.272;13.356;2023-03-26T12:33:01;17.50;57.10
37052;DHT22;22964;52.272;13.356;2023-03-26T12:35:30;17.60;56.40
37052;DHT22;22964;52.272;13.356;2023-03-26T12:38:20;17.70;55.70
37052;DHT22;22964;52.272;13.356;2023-03-26T12:40:47;17.80;54.50
37052;DHT22;22964;52.272;13.356;2023-03-26T12:43:35;17.80;55.10
37052;DHT22;22964;52.272;13.356;2023-03-26T12:46:08;17.80;53.60
37052;DHT22;22964;52.272;13.356;2023-03-26T12:48:43;17.80;54.60
37052;DHT22;22964;52.272;13.356;2023-03-26T13:02:10;17.80;54.40
37052;DHT22;22964;52.272;13.356;2023-03-26T13:19:14;17.70;53.40
37052;DHT22;22964;52.272;13.356;2023-03-26T13:38:13;18.60;53.50
37052;DHT22;22964;52.272;13.356;2023-03-26T13:43:57;18.90;55.20
37052;DHT22;22964;52.272;13.356;2023-03-26T13:46:33;19.10;53.10
37052;DHT22;22964;52.272;13.356;2023-03-26T13:49:12;19.10;52.70
37052;DHT22;22964;52.272;13.356;2023-03-26T13:54:33;19.00;51.80
37052;DHT22;22964;52.272;13.356;2023-03-26T14:03:57;18.90;52.10
37052;DHT22;22964;52.272;13.356;2023-03-26T14:09:16;18.80;51.60
37052;DHT22;22964;52.272;13.356;2023-03-26T14:11:49;18.80;52.20
37052;DHT22;22964;52.272;13.356;2023-03-26T14:16:58;18.70;51.30
37052;DHT22;22964;52.272;13.356;2023-03-26T14:19:34;18.70;51.50
37052;DHT22;22964;52.272;13.356;2023-03-26T14:25:09;18.60;51.20
37052;DHT22;22964;52.272;13.356;2023-03-26T14:30:39;18.50;51.40
37052;DHT22;22964;52.272;13.356;2023-03-26T14:36:09;18.50;51.20
37052;DHT22;22964;52.272;13.356;2023-03-26T14:41:51;18.50;51.20
37052;DHT22;22964;52.272;13.356;2023-03-26T14:44:36;18.40;51.40
37052;DHT22;22964;52.272;13.356;2023-03-26T14:47:18;18.40;51.40
37052;DHT22;22964;52.272;13.356;2023-03-26T14:52:48;18.30;51.60
37052;DHT22;22964;52.272;13.356;2023-03-26T14:57:54;18.30;51.50
37052;DHT22;22964;52.272;13.356;2023-03-26T15:00:48;18.20;51.90
37052;DHT22;22964;52.272;13.356;2023-03-26T15:14:44;18.10;51.40
37052;DHT22;22964;52.272;13.356;2023-03-26T15:45:37;17.90;52.60
37052;DHT22;22964;52.272;13.356;2023-03-26T15:51:00;17.80;52.50
37052;DHT22;22964;52.272;13.356;2023-03-26T15:54:07;17.80;52.20
37052;DHT22;22964;52.272;13.356;2023-03-26T16:02:19;17.60;51.90
37052;DHT22;22964;52.272;13.356;2023-03-26T16:10:50;17.50;52.50
37052;DHT22;22964;52.272;13.356;2023-03-26T16:13:26;17.40;51.90
37052;DHT22;22964;52.272;13.356;2023-03-26T16:15:55;17.40;52.50
37052;DHT22;22964;52.272;13.356;2023-03-26T16:20:53;17.30;52.40
37052;DHT22;22964;52.272;13.356;2023-03-26T16:23:26;17.20;52.70
37052;DHT22;22964;52.272;13.356;2023-03-26T16:34:39;17.00;52.90
37052;DHT22;22964;52.272;13.356;2023-03-26T16:39:50;16.90;53.70
37052;DHT22;22964;52.272;13.356;2023-03-26T16:45:51;16.90;53.40
37052;DHT22;22964;52.272;13.356;2023-03-26T16:48:39;16.80;53.50
37052;DHT22;22964;52.272;13.356;2023-03-26T17:02:28;16.60;53.30
37052;DHT22;22964;52.272;13.356;2023-03-26T17:07:57;16.50;53.50
37052;DHT22;22964;52.272;13.356;2023-03-26T17:10:40;16.40;53.50
37052;DHT22;22964;52.272;13.356;2023-03-26T17:13:21;16.30;53.60
37052;DHT22;22964;52.272;13.356;2023-03-26T17:16:00;16.30;53.80
37052;DHT22;22964;52.272;13.356;2023-03-26T17:21:18;16.10;54.10
37052;DHT22;22964;52.272;13.356;2023-03-26T17:24:08;16.10;54.10
37052;DHT22;22964;52.272;13.356;2023-03-26T17:26:47;16.10;54.20
37052;DHT22;22964;52.272;13.356;2023-03-26T17:29:23;16.00;54.30
37052;DHT22;22964;52.272;13.356;2023-03-26T17:32:06;16.00;54.50
37052;DHT22;22964;52.272;13.356;2023-03-26T17:37:04;15.90;54.50
37052;DHT22;22964;52.272;13.356;2023-03-26T17:42:33;15.80;54.10
37052;DHT22;22964;52.272;13.356;2023-03-26T17:45:11;15.80;54.20
37052;DHT22;22964;52.272;13.356;2023-03-26T17:47:44;15.70;54.10
37052;DHT22;22964;52.272;13.356;2023-03-26T17:50:31;15.70;54.20
37052;DHT22;22964;52.272;13.356;2023-03-26T17:53:05;15.70;54.20
37052;DHT22;22964;52.272;13.356;2023-03-26T17:55:37;15.60;54.10
37052;DHT22;22964;52.272;13.356;2023-03-26T17:58:13;15.50;54.10
37052;DHT22;22964;52.272;13.356;2023-03-26T18:00:47;15.50;54.20
37052;DHT22;22964;52.272;13.356;2023-03-26T18:03:21;15.50;54.30
37052;DHT22;22964;52.272;13.356;2023-03-26T18:05:51;15.40;54.30
37052;DHT22;22964;52.272;13.356;2023-03-26T18:08:45;15.40;54.40
37052;DHT22;22964;52.272;13.356;2023-03-26T18:16:54;15.20;54.80
37052;DHT22;22964;52.272;13.356;2023-03-26T18:19:22;15.20;55.00
37052;DHT22;22964;52.272;13.356;2023-03-26T18:21:52;15.20;54.80
37052;DHT22;22964;52.272;13.356;2023-03-26T18:24:30;15.20;54.60
37052;DHT22;22964;52.272;13.356;2023-03-26T18:27:18;15.20;54.50
37052;DHT22;22964;52.272;13.356;2023-03-26T18:32:28;15.10;54.40
37052;DHT22;22964;52.272;13.356;2023-03-26T18:35:42;15.10;54.70
37052;DHT22;22964;52.272;13.356;2023-03-26T18:38:17;15.10;54.80
37052;DHT22;22964;52.272;13.356;2023-03-26T18:40:46;15.10;55.10
37052;DHT22;22964;52.272;13.356;2023-03-26T18:43:20;15.10;54.90
37052;DHT22;22964;52.272;13.356;2023-03-26T18:45:52;15.00;55.40
37052;DHT22;22964;52.272;13.356;2023-03-26T18:48:21;15.00;54.70
37052;DHT22;22964;52.272;13.356;2023-03-26T18:50:52;15.00;54.70
37052;DHT22;22964;52.272;13.356;2023-03-26T18:53:21;15.00;54.60
37052;DHT22;22964;52.272;13.356;2023-03-26T18:55:48;14.90;54.70
37052;DHT22;22964;52.272;13.356;2023-03-26T19:01:01;14.80;54.80
37052;DHT22;22964;52.272;13.356;2023-03-26T19:03:33;14.80;55.00
37052;DHT22;22964;52.272;13.356;2023-03-26T19:06:00;14.80;54.90
37052;DHT22;22964;52.272;13.356;2023-03-26T19:08:30;14.80;54.90
37052;DHT22;22964;52.272;13.356;2023-03-26T19:10:57;14.70;54.80
37052;DHT22;22964;52.272;13.356;2023-03-26T19:13:27;14.70;54.80
37052;DHT22;22964;52.272;13.356;2023-03-26T19:15:53;14.70;54.80
37052;DHT22;22964;52.272;13.356;2023-03-26T19:18:25;14.70;54.70
37052;DHT22;22964;52.272;13.356;2023-03-26T19:20:58;14.60;54.60
37052;DHT22;22964;52.272;13.356;2023-03-26T19:23:32;14.60;54.60
37052;DHT22;22964;52.272;13.356;2023-03-26T19:26:01;14.50;54.60
37052;DHT22;22964;52.272;13.356;2023-03-26T19:28:49;14.50;54.70
37052;DHT22;22964;52.272;13.356;2023-03-26T19:39:25;14.30;54.60
37052;DHT22;22964;52.272;13.356;2023-03-26T19:41:57;14.30;54.70
37052;DHT22;22964;52.272;13.356;2023-03-26T19:44:28;14.30;54.70
37052;DHT22;22964;52.272;13.356;2023-03-26T19:47:02;14.20;54.50
37052;DHT22;22964;52.272;13.356;2023-03-26T19:49:32;14.20;54.40
37052;DHT22;22964;52.272;13.356;2023-03-26T19:52:25;14.20;54.50
37052;DHT22;22964;52.272;13.356;2023-03-26T19:57:19;14.10;54.70
37052;DHT22;22964;52.272;13.356;2023-03-26T19:59:46;14.10;54.80
37052;DHT22;22964;52.272;13.356;2023-03-26T20:02:12;14.00;54.70
37052;DHT22;22964;52.272;13.356;2023-03-26T20:04:40;14.00;54.70
37052;DHT22;22964;52.272;13.356;2023-03-26T20:07:20;13.90;54.60
37052;DHT22;22964;52.272;13.356;2023-03-26T20:09:51;13.90;54.50
37052;DHT22;22964;52.272;13.356;2023-03-26T20:12:17;13.90;54.60
37052;DHT22;22964;52.272;13.356;2023-03-26T20:14:43;13.80;54.50
37052;DHT22;22964;52.272;13.356;2023-03-26T20:17:15;13.80;54.40
37052;DHT22;22964;52.272;13.356;2023-03-26T20:19:42;13.70;54.20
37052;DHT22;22964;52.272;13.356;2023-03-26T20:22:16;13.70;54.40
37052;DHT22;22964;52.272;13.356;2023-03-26T20:24:43;13.60;54.00
37052;DHT22;22964;52.272;13.356;2023-03-26T20:27:11;13.60;53.80
37052;DHT22;22964;52.272;13.356;2023-03-26T20:29:39;13.50;53.90
37052;DHT22;22964;52.272;13.356;2023-03-26T20:32:25;13.50;54.00
37052;DHT22;22964;52.272;13.356;2023-03-26T20:34:51;13.40;53.70
37052;DHT22;22964;52.272;13.356;2023-03-26T20:37:17;13.40;53.90
37052;DHT22;22964;52.272;13.356;2023-03-26T20:39:43;13.30;53.70
37052;DHT22;22964;52.272;13.356;2023-03-26T20:42:10;13.30;53.70
37052;DHT22;22964;52.272;13.356;2023-03-26T20:44:36;13.20;53.70
37052;DHT22;22964;52.272;13.356;2023-03-26T20:47:02;13.20;53.60
37052;DHT22;22964;52.272;13.356;2023-03-26T20:49:28;13.20;53.70
37052;DHT22;22964;52.272;13.356;2023-03-26T20:51:54;13.10;53.80
37052;DHT22;22964;52.272;13.356;2023-03-26T20:54:22;13.10;53.80
37052;DHT22;22964;52.272;13.356;2023-03-26T20:56:49;13.10;53.70
37052;DHT22;22964;52.272;13.356;2023-03-26T20:59:20;13.00;53.60
37052;DHT22;22964;52.272;13.356;2023-03-26T21:01:48;12.90;53.30
37052;DHT22;22964;52.272;13.356;2023-03-26T21:04:15;12.90;53.80
37052;DHT22;22964;52.272;13.356;2023-03-26T21:06:42;12.80;53.70
37052;DHT22;22964;52.272;13.356;2023-03-26T21:09:16;12.80;53.70
37052;DHT22;22964;52.272;13.356;2023-03-26T21:14:31;12.70;53.70
37052;DHT22;22964;52.272;13.356;2023-03-26T21:16:59;12.60;53.90
37052;DHT22;22964;52.272;13.356;2023-03-26T21:19:25;12.60;54.00
37052;DHT22;22964;52.272;13.356;2023-03-26T21:29:38;12.20;53.80
37052;DHT22;22964;52.272;13.356;2023-03-26T21:32:04;12.10;53.80
37052;DHT22;22964;52.272;13.356;2023-03-26T21:34:30;12.10;53.90
37052;DHT22;22964;52.272;13.356;2023-03-26T21:36:58;12.00;53.90
37052;DHT22;22964;52.272;13.356;2023-03-26T21:39:25;11.90;54.00
37052;DHT22;22964;52.272;13.356;2023-03-26T21:41:52;11.90;54.30
37052;DHT22;22964;52.272;13.356;2023-03-26T21:44:18;11.80;54.30
37052;DHT22;22964;52.272;13.356;2023-03-26T21:46:46;11.80;54.30
37052;DHT22;22964;52.272;13.356;2023-03-26T21:49:14;11.70;54.40
37052;DHT22;22964;52.272;13.356;2023-03-26T21:51:41;11.70;54.20
37052;DHT22;22964;52.272;13.356;2023-03-26T21:54:30;11.70;54.10
37052;DHT22;22964;52.272;13.356;2023-03-26T22:05:39;11.40;53.70
37052;DHT22;22964;52.272;13.356;2023-03-26T22:08:07;11.50;54.00
37052;DHT22;22964;52.272;13.356;2023-03-26T22:10:37;11.40;54.10
37052;DHT22;22964;52.272;13.356;2023-03-26T22:13:03;11.40;54.20
37052;DHT22;22964;52.272;13.356;2023-03-26T22:15:28;11.40;54.30